createdAt,value
2022-09-25T00:02:59.295Z,52.57
2022-09-25T00:08:21.143Z,52.21
2022-09-25T00:13:44.566Z,51.84
2022-09-25T00:19:25.082Z,52.34
2022-09-25T00:24:47.036Z,52.14
2022-09-25T00:30:10.889Z,51.82
2022-09-25T00:35:33.835Z,52.13
2022-09-25T00:40:56.079Z,52.08
2022-09-25T00:46:27.866Z,52.32
2022-09-25T00:51:55.633Z,52.30
2022-09-25T00:57:26.876Z,52.54
2022-09-25T01:02:54.021Z,52.46
2022-09-25T01:08:20.424Z,52.56
2022-09-25T01:13:42.390Z,53.05
2022-09-25T01:19:29.164Z,52.11
2022-09-25T01:24:53.562Z,51.77
2022-09-25T01:30:18.858Z,52.08
2022-09-25T01:35:52.409Z,51.76
2022-09-25T01:41:30.561Z,51.81
2022-09-25T01:46:54.111Z,51.60
2022-09-25T01:52:21.079Z,52.29
2022-09-25T01:57:53.907Z,52.30
2022-09-25T02:03:25.811Z,51.62
2022-09-25T02:08:54.143Z,51.84
2022-09-25T02:14:21.968Z,51.90
2022-09-25T02:20:06.483Z,52.06
2022-09-25T02:25:38.592Z,52.03
2022-09-25T02:31:02.151Z,51.83
2022-09-25T02:36:24.290Z,52.29
2022-09-25T02:41:48.738Z,51.90
2022-09-25T02:47:34.833Z,52.33
2022-09-25T02:53:08.353Z,52.01
2022-09-25T02:58:37.174Z,52.42
2022-09-25T03:04:00.616Z,52.42
2022-09-25T03:09:23.661Z,52.06
2022-09-25T03:14:45.431Z,52.97
2022-09-25T03:20:10.175Z,52.20
2022-09-25T03:25:31.853Z,52.54
2022-09-25T03:31:01.309Z,51.93
2022-09-25T03:36:25.165Z,52.50
2022-09-25T03:41:48.007Z,52.66
2022-09-25T03:47:09.734Z,52.02
2022-09-25T03:52:31.460Z,52.46
2022-09-25T03:57:53.173Z,52.60
2022-09-25T04:03:18.379Z,52.58
2022-09-25T04:08:40.255Z,52.45
2022-09-25T04:14:02.281Z,52.26
2022-09-25T04:19:23.977Z,52.92
2022-09-25T04:24:51.314Z,52.26
2022-09-25T04:30:13.398Z,52.47
2022-09-25T04:35:35.071Z,52.42
2022-09-25T04:40:58.068Z,52.38
2022-09-25T04:46:22.317Z,52.57
2022-09-25T04:51:44.456Z,52.41
2022-09-25T04:57:06.172Z,52.54
2022-09-25T05:02:28.571Z,52.23
2022-09-25T05:07:54.364Z,52.40
2022-09-25T05:13:16.086Z,52.15
2022-09-25T05:18:37.780Z,52.23
2022-09-25T05:23:59.774Z,52.55
2022-09-25T05:29:21.450Z,52.01
2022-09-25T05:34:43.083Z,52.46
2022-09-25T05:40:05.222Z,52.07
2022-09-25T05:45:26.864Z,52.03
2022-09-25T05:50:55.546Z,52.98
2022-09-25T05:56:17.491Z,53.26
2022-09-25T06:01:39.341Z,53.09
2022-09-25T06:07:02.734Z,53.45
2022-09-25T06:12:25.022Z,53.58
2022-09-25T06:17:46.654Z,53.11
2022-09-25T06:23:08.291Z,53.50
2022-09-25T06:28:31.185Z,53.10
2022-09-25T06:33:52.966Z,52.94
2022-09-25T06:39:14.695Z,53.13
2022-09-25T06:44:36.712Z,52.98
2022-09-25T06:49:58.386Z,53.11
2022-09-25T06:55:20.006Z,52.70
2022-09-25T07:00:45.846Z,52.66
2022-09-25T07:06:09.110Z,52.44
2022-09-25T07:11:31.555Z,52.49
2022-09-25T07:16:53.227Z,52.81
2022-09-25T07:22:14.878Z,52.35
2022-09-25T07:27:37.056Z,52.97
2022-09-25T07:33:00.285Z,52.50
2022-09-25T07:38:22.881Z,51.44
2022-09-25T07:43:45.283Z,45.32
2022-09-25T07:49:07.246Z,40.63
2022-09-25T07:54:28.907Z,37.82
2022-09-25T07:59:50.617Z,35.43
2022-09-25T08:05:12.526Z,36.17
2022-09-25T08:10:34.200Z,38.78
2022-09-25T08:15:56.697Z,41.03
2022-09-25T08:21:20.579Z,43.12
2022-09-25T08:26:42.247Z,43.96
2022-09-25T08:32:03.911Z,45.07
2022-09-25T08:37:25.569Z,45.77
2022-09-25T08:42:52.572Z,46.62
2022-09-25T08:48:41.545Z,47.22
2022-09-25T08:54:04.843Z,47.84
2022-09-25T08:59:33.699Z,47.78
2022-09-25T09:04:58.042Z,48.54
2022-09-25T09:10:34.201Z,48.26
2022-09-25T09:16:04.286Z,49.26
2022-09-25T09:21:45.932Z,49.09
2022-09-25T09:27:33.542Z,49.46
2022-09-25T09:33:28.144Z,49.59
2022-09-25T09:39:20.258Z,49.81
2022-09-25T09:44:50.248Z,50.23
2022-09-25T09:50:12.000Z,49.93
2022-09-25T09:55:45.296Z,50.27
2022-09-25T10:01:28.935Z,50.39
2022-09-25T10:07:14.141Z,49.83
2022-09-25T10:12:37.704Z,50.59
2022-09-25T10:18:02.147Z,50.13
2022-09-25T10:23:47.028Z,50.36
2022-09-25T10:29:40.881Z,50.41
2022-09-25T10:35:03.727Z,50.16
2022-09-25T10:40:28.205Z,50.40
2022-09-25T10:46:13.156Z,50.61
2022-09-25T10:51:34.921Z,49.88
2022-09-25T10:56:56.812Z,49.45
2022-09-25T11:02:40.373Z,48.81
2022-09-25T11:08:05.662Z,48.40
2022-09-25T11:13:30.660Z,48.03
2022-09-25T11:19:07.696Z,48.15
2022-09-25T11:24:44.431Z,48.39
2022-09-25T11:30:20.245Z,47.84
2022-09-25T11:35:56.855Z,47.98
2022-09-25T11:41:41.583Z,48.09
2022-09-25T11:47:35.087Z,48.42
2022-09-25T11:53:06.304Z,47.92
2022-09-25T11:58:46.295Z,47.60
2022-09-25T12:04:07.920Z,47.78
2022-09-25T12:09:52.973Z,47.50
2022-09-25T12:15:36.668Z,47.28
2022-09-25T12:21:06.812Z,46.89
2022-09-25T12:26:52.712Z,46.58
2022-09-25T12:32:23.098Z,45.92
2022-09-25T12:38:11.998Z,45.60
2022-09-25T12:43:41.377Z,45.40
2022-09-25T12:49:27.027Z,44.54
2022-09-25T12:54:58.324Z,44.70
2022-09-25T13:00:23.714Z,44.59
2022-09-25T13:06:06.162Z,44.45
2022-09-25T13:11:39.198Z,43.92
2022-09-25T13:17:01.431Z,44.38
2022-09-25T13:22:25.309Z,44.14
2022-09-25T13:27:47.577Z,43.99
2022-09-25T13:33:20.272Z,44.16
2022-09-25T13:39:04.802Z,43.97
2022-09-25T13:44:41.282Z,44.02
2022-09-25T13:50:17.663Z,44.42
2022-09-25T13:55:48.228Z,44.09
2022-09-25T14:01:33.478Z,43.89
2022-09-25T14:07:04.922Z,44.40
2022-09-25T14:12:42.431Z,44.19
2022-09-25T14:18:09.072Z,44.48
2022-09-25T14:23:33.512Z,44.19
2022-09-25T14:28:57.385Z,44.19
2022-09-25T14:34:30.787Z,44.63
2022-09-25T14:40:22.398Z,44.07
2022-09-25T14:46:01.496Z,44.73
2022-09-25T14:51:27.328Z,44.76
2022-09-25T14:56:55.050Z,44.56
2022-09-25T15:02:26.631Z,44.94
2022-09-25T15:07:48.359Z,45.02
2022-09-25T15:13:20.960Z,45.19
2022-09-25T15:18:56.321Z,44.88
2022-09-25T15:24:24.630Z,45.00
2022-09-25T15:29:48.342Z,44.97
2022-09-25T15:35:17.495Z,44.96
2022-09-25T15:40:40.413Z,44.45
2022-09-25T15:46:07.900Z,44.38
2022-09-25T15:51:33.698Z,44.66
2022-09-25T15:56:57.442Z,44.43
2022-09-25T16:02:40.038Z,44.48
2022-09-25T16:08:24.219Z,44.10
2022-09-25T16:13:49.306Z,44.38
2022-09-25T16:19:41.093Z,43.84
2022-09-25T16:25:02.949Z,44.44
2022-09-25T16:30:24.713Z,43.99
2022-09-25T16:36:10.253Z,44.24
2022-09-25T16:41:30.546Z,44.56
2022-09-25T16:46:54.958Z,44.47
2022-09-25T16:52:20.993Z,44.53
2022-09-25T16:57:46.145Z,44.71
2022-09-25T17:03:12.199Z,44.54
2022-09-25T17:08:33.915Z,44.68
2022-09-25T17:13:56.398Z,45.15
2022-09-25T17:19:19.315Z,45.31
2022-09-25T17:24:41.108Z,44.92
2022-09-25T17:30:02.793Z,45.21
2022-09-25T17:35:46.402Z,45.24
2022-09-25T17:41:20.848Z,45.19
2022-09-25T17:46:43.050Z,46.07
2022-09-25T17:52:05.264Z,45.73
2022-09-25T17:57:27.848Z,46.17
2022-09-25T18:02:49.630Z,46.25
2022-09-25T18:08:12.546Z,46.68
2022-09-25T18:13:37.868Z,46.78
2022-09-25T18:19:21.906Z,46.95
2022-09-25T18:24:43.588Z,46.83
2022-09-25T18:30:05.892Z,47.10
2022-09-25T18:35:27.577Z,47.01
2022-09-25T18:40:49.357Z,47.28
2022-09-25T18:46:11.148Z,46.96
2022-09-25T18:51:34.211Z,46.98
2022-09-25T18:56:58.646Z,47.36
2022-09-25T19:02:25.090Z,47.14
2022-09-25T19:07:46.840Z,47.71
2022-09-25T19:13:08.575Z,47.64
2022-09-25T19:18:30.212Z,47.80
2022-09-25T19:23:52.233Z,47.86
2022-09-25T19:29:14.072Z,48.34
2022-09-25T19:34:36.110Z,48.25
2022-09-25T19:40:16.768Z,48.63
2022-09-25T19:45:38.508Z,48.32
2022-09-25T19:51:06.273Z,48.43
2022-09-25T19:56:27.905Z,48.92
2022-09-25T20:01:49.597Z,48.85
2022-09-25T20:07:15.611Z,48.93
2022-09-25T20:12:37.229Z,49.09
2022-09-25T20:17:59.607Z,49.41
2022-09-25T20:23:21.253Z,49.20
2022-09-25T20:28:43.795Z,49.21
2022-09-25T20:34:06.344Z,49.37
2022-09-25T20:39:28.235Z,49.29
2022-09-25T20:44:50.124Z,49.42
2022-09-25T20:50:11.865Z,49.75
2022-09-25T20:55:38.110Z,49.30
2022-09-25T21:01:02.586Z,49.88
2022-09-25T21:06:27.090Z,49.49
2022-09-25T21:11:49.538Z,49.49
2022-09-25T21:17:11.481Z,49.19
2022-09-25T21:22:33.250Z,49.11
2022-09-25T21:27:55.498Z,49.35
2022-09-25T21:33:17.193Z,49.22
2022-09-25T21:38:39.474Z,49.41
2022-09-25T21:44:07.461Z,49.45
2022-09-25T21:49:29.633Z,49.53
2022-09-25T21:54:51.388Z,48.99
2022-09-25T22:00:13.948Z,49.21
2022-09-25T22:05:36.316Z,49.06
2022-09-25T22:10:59.186Z,49.25
2022-09-25T22:16:26.842Z,48.91
2022-09-25T22:21:50.299Z,49.33
2022-09-25T22:27:11.969Z,49.19
2022-09-25T22:32:33.638Z,49.20
2022-09-25T22:37:55.294Z,49.35
2022-09-25T22:43:17.010Z,49.12
2022-09-25T22:48:39.653Z,49.11
2022-09-25T22:54:01.335Z,49.30
2022-09-25T22:59:23.031Z,49.05
2022-09-25T23:04:46.282Z,48.86
2022-09-25T23:10:08.585Z,49.28
2022-09-25T23:15:30.452Z,49.11
2022-09-25T23:20:54.189Z,49.23
2022-09-25T23:26:15.899Z,48.86
2022-09-25T23:31:37.561Z,48.78
2022-09-25T23:36:59.209Z,49.31
2022-09-25T23:42:22.291Z,49.01
2022-09-25T23:47:44.129Z,48.81
2022-09-25T23:53:06.121Z,49.21
2022-09-25T23:58:28.349Z,49.00
